KTAN

Details ICAO KTAN (TAN)
Name TAUNTON MUNI KING FLD
Region United States
Timezone America/New_York (UTC-5.0)
Plans Departing 3
Arriving 2
Stats Elevation 42 ft / 13 m (AMSL)
Location 41.875220° -71.017416°
Runways 2
Magnetic Variation 14.544° W
Sunrise 2017-12-11 12:03:13 UTC / 2017-12-11 07:03:13 Local
Sunset 2017-12-11 21:14:31 UTC / 2017-12-11 16:14:31 Local
Advertisement - Login to hide

Runways

ID Width Length Bearing (true) Bearing (mag) Surface Threshold Offset Overrun Length
04 60 ft / 18 m 1,900 ft / 579 m 26.47° 41.01° Dirt 0 ft / 0 m 0 ft / 0 m
12 75 ft / 23 m 3,489 ft / 1,064 m 107.74° 122.28° Asphalt 0 ft / 0 m 0 ft / 0 m
22 60 ft / 18 m 1,900 ft / 579 m 206.47° 221.01° Dirt 0 ft / 0 m 0 ft / 0 m
30 75 ft / 23 m 3,489 ft / 1,064 m 287.75° 302.29° Asphalt 0 ft / 0 m 0 ft / 0 m

Map

Weather


0- 5 10 15 20 25 30 35+ Temperature / ° C

Clouds and Precipitation
Forecast for 2017-12-11 18:00 UTC. Updated 34 minutes ago

Ground ~20,000 ft ~40,000 ft Winds

METAR

KTAN 111452Z AUTO 25008KT 10SM SCT070 BKN080 OVC100 02/M04 A2999 RMK AO2 SLP157 T00171044 51007

TAF

Not found

Frequencies

Recorded 132.67 MHz ASOS
Approach 128.70 MHz PROVIDENCE APP/DEP
Unicom 122.70 MHz CTAF/UNICOM
Warning: Do not use this data for real-world aviation or navigation. No guarantee of current accuracy is given.